Time;durP1;ratioP1;P1;durP2;ratioP2;P2;SDS_P1;SDS_P2;PMS_P1;PMS_P2;Temp;Humidity;BMP_temperature;BMP_pressure;BME280_temperature;BME280_humidity;BME280_pressure;Samples;Min_cycle;Max_cycle;Signal;HPM_P1;HPM_P2
2023/07/14 00:01:25;;;;;;;18.95;15.05;;;14.40;99.90;;;;;;7369194;19;20027;-66
2023/07/14 00:03:52;;;;;;;18.45;16.58;;;14.40;99.90;;;;;;7371606;19;20019;-66
2023/07/14 00:06:20;;;;;;;17.50;15.38;;;14.40;99.90;;;;;;7369494;19;20771;-66
2023/07/14 00:08:47;;;;;;;18.88;16.23;;;14.40;99.90;;;;;;7358963;19;20023;-68
2023/07/14 00:11:23;;;;;;;16.88;15.15;;;14.40;99.90;;;;;;7367253;19;20022;-66
2023/07/14 00:13:51;;;;;;;17.17;15.13;;;14.30;99.90;;;;;;7371417;19;20021;-60
2023/07/14 00:16:25;;;;;;;17.70;16.00;;;14.30;99.90;;;;;;7370865;19;20030;-67
2023/07/14 00:18:51;;;;;;;15.75;14.25;;;14.20;99.90;;;;;;7365197;19;20042;-60
2023/07/14 00:21:26;;;;;;;15.38;13.68;;;14.10;99.90;;;;;;7366312;19;20019;-60
2023/07/14 00:24:00;;;;;;;15.00;13.40;;;14.10;99.90;;;;;;7369278;19;20048;-60
2023/07/14 00:26:33;;;;;;;17.08;15.52;;;14.00;99.90;;;;;;7374037;19;20404;-60
2023/07/14 00:29:14;;;;;;;17.50;14.88;;;14.00;99.90;;;;;;7376847;19;20351;-60
2023/07/14 00:31:40;;;;;;;15.10;13.52;;;14.00;99.90;;;;;;7376683;19;20022;-60
2023/07/14 00:34:09;;;;;;;17.13;15.52;;;14.00;99.90;;;;;;7368472;19;20400;-60
2023/07/14 00:36:35;;;;;;;17.92;16.15;;;14.00;99.90;;;;;;7378876;19;20014;-66
2023/07/14 00:39:01;;;;;;;19.70;17.70;;;14.00;99.90;;;;;;7376045;19;20434;-66
2023/07/14 00:41:31;;;;;;;18.38;16.55;;;14.00;99.90;;;;;;7378755;19;20014;-66
2023/07/14 00:43:59;;;;;;;18.13;16.38;;;14.00;99.90;;;;;;7379943;19;20482;-66
2023/07/14 00:46:31;;;;;;;20.13;17.75;;;13.90;99.90;;;;;;7376578;19;20022;-60
2023/07/14 00:49:01;;;;;;;17.95;16.15;;;13.90;99.90;;;;;;7376605;19;20037;-66
2023/07/14 00:51:34;;;;;;;21.00;17.27;;;14.00;99.90;;;;;;7356340;19;20026;-66
2023/07/14 00:54:01;;;;;;;18.75;16.40;;;13.90;99.90;;;;;;7368675;19;20018;-65
2023/07/14 00:56:42;;;;;;;19.15;17.13;;;13.90;99.90;;;;;;7375339;19;20026;-66
2023/07/14 00:59:34;;;;;;;20.63;16.90;;;13.90;99.90;;;;;;7375915;19;20592;-66
2023/07/14 01:02:20;;;;;;;19.48;16.98;;;13.90;99.90;;;;;;7374627;19;20477;-66
2023/07/14 01:05:01;;;;;;;17.13;15.13;;;13.90;99.90;;;;;;7372869;19;20045;-67
2023/07/14 01:07:39;;;;;;;18.38;16.40;;;13.90;99.90;;;;;;7376886;19;20023;-67
2023/07/14 01:10:09;;;;;;;18.15;16.35;;;13.80;99.90;;;;;;7373699;19;20018;-67
2023/07/14 01:12:40;;;;;;;21.17;18.92;;;13.80;99.90;;;;;;7372628;19;20418;-67
2023/07/14 01:15:07;;;;;;;21.52;19.02;;;13.90;99.90;;;;;;7378613;19;20025;-66
2023/07/14 01:17:36;;;;;;;20.50;18.50;;;13.80;99.90;;;;;;7373212;19;20586;-67
2023/07/14 01:20:08;;;;;;;20.02;17.92;;;13.80;99.90;;;;;;7369879;19;20018;-67
2023/07/14 01:22:56;;;;;;;20.00;17.90;;;13.80;99.90;;;;;;7373083;19;20343;-67
2023/07/14 01:25:38;;;;;;;18.88;17.08;;;13.80;99.90;;;;;;7372202;19;20358;-67
2023/07/14 01:28:11;;;;;;;;;;;13.80;99.90;;;;;;7373822;19;20023;-66
2023/07/14 01:30:39;;;;;;;21.10;18.90;;;13.80;99.90;;;;;;7374931;19;19918;-66
2023/07/14 01:33:11;;;;;;;21.27;19.13;;;13.70;99.90;;;;;;7375248;19;20092;-66
2023/07/14 01:35:45;;;;;;;20.65;18.48;;;13.70;99.90;;;;;;7376274;19;20463;-66
2023/07/14 01:38:12;;;;;;;19.20;17.20;;;13.70;99.90;;;;;;7371415;19;20019;-61
2023/07/14 01:40:40;;;;;;;21.38;18.33;;;13.70;99.90;;;;;;7364599;19;20428;-60
2023/07/14 01:43:10;;;;;;;20.35;16.52;;;13.60;99.90;;;;;;7370606;19;20014;-60
2023/07/14 01:45:48;;;;;;;18.70;16.90;;;13.60;99.90;;;;;;7368194;19;20022;-60
2023/07/14 01:48:18;;;;;;;22.38;17.45;;;13.60;99.90;;;;;;7373075;19;20018;-60
2023/07/14 01:50:48;;;;;;;19.63;17.63;;;13.60;99.90;;;;;;7372372;19;20638;-61
2023/07/14 01:53:26;;;;;;;20.23;18.15;;;13.50;99.90;;;;;;7368611;19;20023;-66
2023/07/14 01:55:55;;;;;;;20.83;18.75;;;13.50;99.90;;;;;;7373884;19;20022;-67
2023/07/14 01:58:37;;;;;;;19.65;17.75;;;13.50;99.90;;;;;;7366053;19;20051;-67
2023/07/14 02:01:05;;;;;;;19.63;17.08;;;13.50;99.90;;;;;;7374341;19;20038;-66
2023/07/14 02:03:41;;;;;;;18.55;16.65;;;13.50;99.90;;;;;;7374199;19;20018;-66
2023/07/14 02:06:08;;;;;;;19.48;16.65;;;13.50;99.90;;;;;;7376247;19;21675;-67
2023/07/14 02:08:34;;;;;;;19.17;16.63;;;13.40;99.90;;;;;;7370154;19;20625;-66
2023/07/14 02:11:01;;;;;;;19.75;17.27;;;13.40;99.90;;;;;;7363767;19;20359;-66
2023/07/14 02:13:28;;;;;;;19.42;17.42;;;13.30;99.90;;;;;;7378904;19;20018;-66
2023/07/14 02:15:55;;;;;;;19.23;17.33;;;13.30;99.90;;;;;;7373638;19;20401;-66
2023/07/14 02:18:25;;;;;;;19.85;17.70;;;13.30;99.90;;;;;;7360577;19;20023;-66
2023/07/14 02:20:55;;;;;;;21.52;16.63;;;13.30;99.90;;;;;;7372394;19;20018;-66
2023/07/14 02:23:24;;;;;;;18.35;16.48;;;13.30;99.90;;;;;;7372432;19;20015;-66
2023/07/14 02:26:05;;;;;;;18.77;16.30;;;13.30;99.90;;;;;;7375483;19;20014;-65
2023/07/14 02:28:31;;;;;;;18.48;16.60;;;13.30;99.90;;;;;;7374902;19;20455;-66
2023/07/14 02:31:13;;;;;;;19.13;15.77;;;13.20;99.90;;;;;;7375199;19;20070;-66
2023/07/14 02:33:43;;;;;;;19.08;16.10;;;13.20;99.90;;;;;;7367848;19;20018;-66
2023/07/14 02:36:54;;;;;;;17.00;15.30;;;13.20;99.90;;;;;;7367882;19;20483;-66
2023/07/14 02:39:21;;;;;;;16.90;15.07;;;13.20;99.90;;;;;;7365910;19;20018;-66
2023/07/14 02:41:56;;;;;;;18.13;15.60;;;13.20;99.90;;;;;;7372848;19;20014;-66
2023/07/14 02:44:36;;;;;;;17.45;14.50;;;13.20;99.90;;;;;;7371131;19;20014;-66
2023/07/14 02:47:21;;;;;;;15.95;14.38;;;13.20;99.90;;;;;;7369982;19;20021;-66
2023/07/14 02:49:48;;;;;;;15.75;13.93;;;13.20;99.90;;;;;;7362960;19;20094;-66
2023/07/14 02:52:15;;;;;;;16.42;14.75;;;13.10;99.90;;;;;;7368722;19;20026;-60
2023/07/14 02:54:42;;;;;;;16.00;14.27;;;13.10;99.90;;;;;;7370948;19;20022;-59
2023/07/14 02:57:08;;;;;;;16.23;14.40;;;13.10;99.90;;;;;;7371439;19;20018;-59
2023/07/14 02:59:34;;;;;;;16.35;14.43;;;13.10;99.90;;;;;;7370384;19;20549;-59
2023/07/14 03:02:02;;;;;;;16.73;13.75;;;13.10;99.90;;;;;;7369187;19;20453;-59
2023/07/14 03:04:28;;;;;;;14.57;13.07;;;13.00;99.90;;;;;;7372617;19;20018;-59
2023/07/14 03:06:54;;;;;;;16.63;13.65;;;13.00;99.90;;;;;;7365119;19;21127;-59
2023/07/14 03:09:21;;;;;;;17.15;14.63;;;13.00;99.90;;;;;;7372499;19;20435;-59
2023/07/14 03:11:47;;;;;;;16.35;13.45;;;13.00;99.90;;;;;;7369104;19;20050;-66
2023/07/14 03:14:13;;;;;;;15.75;14.20;;;13.00;99.90;;;;;;7369395;19;20025;-66
2023/07/14 03:16:40;;;;;;;15.57;14.02;;;13.00;99.90;;;;;;7373108;19;21132;-66
2023/07/14 03:19:06;;;;;;;16.25;13.45;;;13.00;99.90;;;;;;7371267;19;20061;-66
2023/07/14 03:21:32;;;;;;;18.23;12.82;;;13.00;99.90;;;;;;7367471;19;20035;-66
2023/07/14 03:23:59;;;;;;;17.25;13.75;;;13.00;99.90;;;;;;7371218;19;20022;-66
2023/07/14 03:26:26;;;;;;;18.23;13.98;;;13.00;99.90;;;;;;7372396;19;20636;-66
2023/07/14 03:28:52;;;;;;;17.33;12.23;;;13.00;99.90;;;;;;7374756;19;20652;-66
2023/07/14 03:31:18;;;;;;;15.60;13.02;;;13.00;99.90;;;;;;7370125;19;20015;-66
2023/07/14 03:33:45;;;;;;;14.68;12.32;;;13.00;99.90;;;;;;7372864;19;20577;-67
2023/07/14 03:36:13;;;;;;;16.15;13.55;;;13.00;99.90;;;;;;7369786;19;20437;-66
2023/07/14 03:38:44;;;;;;;14.70;12.30;;;13.00;99.90;;;;;;7371777;19;20030;-66
2023/07/14 03:41:13;;;;;;;17.35;13.20;;;13.00;99.90;;;;;;7372192;19;20501;-67
2023/07/14 03:43:40;;;;;;;16.13;13.40;;;13.00;99.90;;;;;;7369463;19;20022;-66
2023/07/14 03:46:07;;;;;;;15.00;13.40;;;13.00;99.90;;;;;;7372543;19;20022;-66
2023/07/14 03:48:34;;;;;;;17.08;13.80;;;12.90;99.90;;;;;;7365261;19;20017;-66
2023/07/14 03:51:02;;;;;;;16.05;12.75;;;13.00;99.90;;;;;;7365160;19;20086;-66
2023/07/14 03:53:29;;;;;;;15.77;13.40;;;12.90;99.90;;;;;;7371270;19;20021;-66
2023/07/14 03:55:57;;;;;;;14.93;13.18;;;12.90;99.90;;;;;;7373633;19;20419;-66
2023/07/14 03:58:24;;;;;;;17.27;13.93;;;12.90;99.90;;;;;;7367441;19;20014;-67
2023/07/14 04:00:50;;;;;;;15.05;13.45;;;12.90;99.90;;;;;;7375422;19;20023;-66
2023/07/14 04:03:16;;;;;;;16.08;13.45;;;13.00;99.90;;;;;;7372047;19;20045;-66
2023/07/14 04:05:47;;;;;;;16.77;12.93;;;13.00;99.90;;;;;;7378763;19;20050;-59
2023/07/14 04:08:13;;;;;;;19.13;14.00;;;13.10;99.90;;;;;;7375367;19;20026;-59
2023/07/14 04:10:40;;;;;;;16.02;12.70;;;13.10;99.90;;;;;;7380449;19;20019;-59
2023/07/14 04:13:06;;;;;;;18.17;14.02;;;13.10;99.90;;;;;;7372158;19;20617;-58
2023/07/14 04:15:32;;;;;;;19.05;13.77;;;13.20;99.90;;;;;;7375646;19;20090;-59
2023/07/14 04:17:58;;;;;;;15.55;12.90;;;13.20;99.90;;;;;;7375898;19;20014;-59
2023/07/14 04:20:25;;;;;;;16.58;12.05;;;13.20;99.90;;;;;;7374120;19;20018;-58
2023/07/14 04:22:51;;;;;;;15.02;12.13;;;13.20;99.90;;;;;;7375423;19;20132;-66
2023/07/14 04:25:17;;;;;;;14.63;12.30;;;13.30;99.90;;;;;;7373325;19;20014;-66
2023/07/14 04:27:44;;;;;;;16.02;12.48;;;13.30;99.90;;;;;;7374435;19;20442;-66
2023/07/14 04:30:10;;;;;;;15.43;11.98;;;13.40;99.90;;;;;;7377670;19;20136;-66
2023/07/14 04:32:37;;;;;;;16.60;12.60;;;13.40;99.90;;;;;;7376266;19;20511;-66
2023/07/14 04:35:04;;;;;;;15.52;12.90;;;13.50;99.90;;;;;;7372743;19;20023;-70
2023/07/14 04:37:30;;;;;;;14.38;12.50;;;13.60;99.90;;;;;;7378886;19;20018;-66
2023/07/14 04:40:00;;;;;;;15.48;12.52;;;13.60;99.90;;;;;;7368958;19;20014;-66
2023/07/14 04:42:29;;;;;;;14.75;11.85;;;13.80;99.90;;;;;;7376971;19;20596;-66
2023/07/14 04:44:56;;;;;;;16.15;11.35;;;13.90;99.90;;;;;;7378010;19;20030;-66
2023/07/14 04:47:23;;;;;;;19.15;11.52;;;14.10;99.90;;;;;;7376468;19;20035;-66
2023/07/14 04:50:09;;;;;;;13.77;12.02;;;14.10;99.90;;;;;;7374767;19;20187;-59
2023/07/14 04:52:36;;;;;;;11.85;10.63;;;14.20;99.90;;;;;;7377954;19;20018;-66
2023/07/14 04:55:02;;;;;;;13.48;11.70;;;14.30;99.90;;;;;;7376043;19;20104;-66
2023/07/14 04:57:29;;;;;;;12.93;11.60;;;14.40;99.90;;;;;;7375459;19;20022;-59
2023/07/14 04:59:58;;;;;;;14.20;11.93;;;14.50;99.90;;;;;;7372600;19;20049;-59
2023/07/14 05:02:27;;;;;;;13.02;11.52;;;14.50;99.90;;;;;;7372274;19;20056;-59
2023/07/14 05:05:11;;;;;;;14.95;12.43;;;14.60;99.90;;;;;;7375877;19;20025;-59
2023/07/14 05:07:38;;;;;;;14.30;12.38;;;14.60;99.90;;;;;;7374763;19;20037;-59
2023/07/14 05:10:04;;;;;;;13.43;11.98;;;14.70;99.90;;;;;;7369653;19;20381;-59
2023/07/14 05:12:30;;;;;;;14.35;12.23;;;14.80;99.90;;;;;;7368252;19;20014;-59
2023/07/14 05:15:00;;;;;;;16.52;13.82;;;14.80;99.90;;;;;;7372864;19;20041;-59
2023/07/14 05:17:27;;;;;;;15.02;13.02;;;14.90;99.90;;;;;;7370238;19;20085;-59
2023/07/14 05:19:53;;;;;;;18.65;12.60;;;14.90;99.90;;;;;;7374483;19;20033;-60
2023/07/14 05:22:19;;;;;;;16.92;14.38;;;15.00;99.90;;;;;;7374125;19;20079;-60
2023/07/14 05:24:45;;;;;;;17.67;14.82;;;15.10;99.90;;;;;;7378507;19;20078;-61
2023/07/14 05:27:12;;;;;;;17.13;14.93;;;15.10;99.90;;;;;;7371192;19;20014;-59
2023/07/14 05:29:38;;;;;;;16.90;15.13;;;15.20;99.90;;;;;;7375018;19;20597;-59
2023/07/14 05:32:05;;;;;;;16.55;14.80;;;15.20;99.90;;;;;;7370466;19;20097;-59
2023/07/14 05:34:31;;;;;;;18.50;15.85;;;15.30;99.90;;;;;;7370274;19;20022;-59
2023/07/14 05:36:57;;;;;;;19.88;16.95;;;15.40;99.90;;;;;;7374212;19;20517;-59
2023/07/14 05:39:23;;;;;;;21.13;19.02;;;15.50;99.90;;;;;;7374383;19;20022;-60
2023/07/14 05:41:49;;;;;;;19.52;17.00;;;15.50;99.90;;;;;;7374638;19;20804;-59
2023/07/14 05:44:15;;;;;;;21.17;16.52;;;15.70;99.90;;;;;;7370793;19;20368;-59
2023/07/14 05:46:42;;;;;;;19.67;17.58;;;15.80;99.90;;;;;;7376395;19;20058;-60
2023/07/14 05:49:09;;;;;;;19.27;17.48;;;15.80;99.90;;;;;;7364338;19;20017;-60
2023/07/14 05:51:35;;;;;;;19.70;17.77;;;15.90;99.90;;;;;;7374926;19;21325;-60
2023/07/14 05:54:01;;;;;;;20.35;16.40;;;15.90;99.90;;;;;;7374257;19;21814;-60
2023/07/14 05:56:27;;;;;;;16.23;13.65;;;16.00;99.90;;;;;;7377787;19;20047;-59
2023/07/14 05:58:55;;;;;;;18.20;15.90;;;16.20;99.90;;;;;;7373968;19;20090;-59
2023/07/14 06:01:22;;;;;;;14.73;13.18;;;16.40;99.90;;;;;;7376692;19;20029;-59
2023/07/14 06:03:48;;;;;;;18.15;15.95;;;16.60;99.90;;;;;;7375179;19;20433;-60
2023/07/14 06:06:14;;;;;;;16.35;14.23;;;16.90;99.90;;;;;;7375071;19;20025;-60
2023/07/14 06:08:42;;;;;;;18.88;15.23;;;17.40;99.90;;;;;;7373240;19;20014;-60
2023/07/14 06:11:08;;;;;;;15.65;13.93;;;17.70;99.90;;;;;;7375632;19;20484;-60
2023/07/14 06:13:34;;;;;;;15.48;13.82;;;17.90;99.90;;;;;;7373487;19;20859;-60
2023/07/14 06:16:01;;;;;;;15.52;14.02;;;18.10;99.90;;;;;;7375811;19;20652;-60
2023/07/14 06:18:28;;;;;;;15.05;13.50;;;18.50;99.90;;;;;;7378437;19;20022;-59
2023/07/14 06:20:54;;;;;;;13.68;12.38;;;18.80;99.90;;;;;;7375601;19;20018;-60
2023/07/14 06:23:20;;;;;;;40.17;36.03;;;19.10;99.90;;;;;;7376070;19;20115;-65
2023/07/14 06:25:46;;;;;;;44.85;40.28;;;19.40;99.90;;;;;;7374509;19;20028;-65
2023/07/14 06:28:13;;;;;;;16.48;12.60;;;19.50;99.90;;;;;;7372026;19;20768;-65
2023/07/14 06:30:39;;;;;;;14.63;13.07;;;19.70;99.90;;;;;;7376063;19;20569;-65
2023/07/14 06:33:05;;;;;;;43.22;38.70;;;19.80;99.90;;;;;;7373922;19;20471;-64
2023/07/14 06:35:32;;;;;;;45.60;41.10;;;20.00;99.90;;;;;;7373529;19;20018;-65
2023/07/14 06:37:58;;;;;;;12.05;10.63;;;20.10;99.90;;;;;;7374983;19;20409;-65
2023/07/14 06:40:25;;;;;;;13.23;11.65;;;20.30;99.90;;;;;;7375379;19;20025;-65
2023/07/14 06:42:51;;;;;;;16.40;11.15;;;20.30;99.90;;;;;;7372253;19;20018;-62
2023/07/14 06:45:18;;;;;;;48.75;43.88;;;20.60;99.90;;;;;;7374533;19;20014;-64
2023/07/14 06:47:44;;;;;;;39.13;34.17;;;20.80;99.90;;;;;;7373203;19;20368;-64
2023/07/14 06:50:11;;;;;;;40.08;30.10;;;21.00;99.90;;;;;;7373081;19;20025;-64
2023/07/14 06:52:38;;;;;;;22.50;9.95;;;21.10;99.90;;;;;;7373364;19;20018;-60
2023/07/14 06:55:06;;;;;;;27.30;11.95;;;21.10;99.90;;;;;;7372589;19;20037;-60
2023/07/14 06:57:32;;;;;;;29.42;12.85;;;21.10;99.90;;;;;;7371929;19;20026;-60
2023/07/14 06:59:59;;;;;;;14.35;8.77;;;21.30;99.90;;;;;;7373202;19;20015;-64
2023/07/14 07:02:28;;;;;;;11.55;8.00;;;21.40;99.90;;;;;;7369557;19;20023;-64
2023/07/14 07:04:54;;;;;;;11.40;9.63;;;21.50;99.90;;;;;;7375405;19;20022;-64
2023/07/14 07:07:21;;;;;;;11.80;9.23;;;21.60;99.90;;;;;;7372467;19;20048;-64
2023/07/14 07:09:47;;;;;;;11.27;9.73;;;21.80;99.90;;;;;;7377738;19;20015;-64
2023/07/14 07:12:13;;;;;;;109.28;99.05;;;22.00;99.90;;;;;;7375904;19;20035;-64
2023/07/14 07:14:39;;;;;;;13.73;10.00;;;22.10;99.90;;;;;;7371199;19;20051;-64
2023/07/14 07:17:06;;;;;;;24.45;21.98;;;22.20;99.90;;;;;;7371254;19;20022;-64
2023/07/14 07:19:33;;;;;;;14.52;9.65;;;22.20;99.90;;;;;;7369219;19;20436;-64
2023/07/14 07:22:02;;;;;;;17.27;15.48;;;22.30;99.90;;;;;;7373353;19;20133;-63
2023/07/14 07:24:28;;;;;;;10.40;7.35;;;22.60;99.90;;;;;;7375521;19;20022;-63
2023/07/14 07:26:55;;;;;;;13.07;11.05;;;22.70;99.90;;;;;;7374079;19;20485;-59
2023/07/14 07:29:22;;;;;;;9.10;6.65;;;22.70;99.90;;;;;;7375499;19;20029;-62
2023/07/14 07:31:48;;;;;;;11.57;9.82;;;22.80;99.90;;;;;;7371847;19;20050;-62
2023/07/14 07:34:15;;;;;;;7.22;6.20;;;22.80;99.90;;;;;;7372696;19;20026;-63
2023/07/14 07:36:42;;;;;;;9.25;7.82;;;23.00;99.90;;;;;;7371776;19;20014;-65
2023/07/14 07:39:08;;;;;;;43.42;39.15;;;23.30;99.90;;;;;;7374964;19;20014;-63
2023/07/14 07:41:36;;;;;;;8.75;5.75;;;23.40;99.90;;;;;;7376149;19;20033;-60
2023/07/14 07:44:02;;;;;;;12.18;7.07;;;23.40;99.90;;;;;;7374495;19;20015;-59
2023/07/14 07:46:33;;;;;;;6.82;4.88;;;23.40;99.90;;;;;;7377807;19;20025;-59
2023/07/14 07:49:00;;;;;;;;;;;23.60;99.90;;;;;;7376671;19;20049;-60
2023/07/14 07:51:27;;;;;;;11.98;10.73;;;23.80;99.90;;;;;;7372855;19;19927;-59
2023/07/14 07:53:53;;;;;;;10.68;6.65;;;23.70;99.90;;;;;;7373284;19;20053;-62
2023/07/14 07:56:20;;;;;;;8.75;6.72;;;23.60;99.90;;;;;;7372090;19;20100;-59
2023/07/14 07:58:46;;;;;;;8.52;6.03;;;23.70;99.90;;;;;;7373577;19;20019;-60
2023/07/14 08:01:20;;;;;;;12.43;9.88;;;23.90;99.90;;;;;;7366928;19;20584;-62
2023/07/14 08:03:47;;;;;;;9.27;6.18;;;24.00;99.90;;;;;;7354413;19;20513;-59
2023/07/14 08:06:14;;;;;;;6.95;4.78;;;24.00;99.90;;;;;;7367362;19;20357;-63
2023/07/14 08:08:41;;;;;;;7.88;6.10;;;23.90;99.90;;;;;;7371535;19;20646;-62
2023/07/14 08:11:10;;;;;;;13.77;12.32;;;23.80;99.90;;;;;;7363948;19;20027;-62
2023/07/14 08:13:37;;;;;;;12.25;10.63;;;23.90;99.90;;;;;;7367674;19;20025;-62
2023/07/14 08:16:03;;;;;;;7.35;4.97;;;23.80;99.90;;;;;;7366922;19;20453;-65
2023/07/14 08:18:30;;;;;;;13.18;9.07;;;24.00;99.90;;;;;;7364527;19;20023;-62
2023/07/14 08:20:58;;;;;;;7.10;3.40;;;24.30;99.90;;;;;;7366149;19;20018;-63
2023/07/14 08:23:28;;;;;;;8.20;7.25;;;24.30;99.90;;;;;;7370689;19;20019;-62
2023/07/14 08:26:01;;;;;;;5.80;3.65;;;24.50;99.90;;;;;;7366239;19;20023;-64
2023/07/14 08:28:27;;;;;;;7.50;4.75;;;24.30;99.90;;;;;;7367060;19;20497;-65
2023/07/14 08:30:58;;;;;;;10.77;7.10;;;24.30;99.90;;;;;;7365825;19;20015;-63
2023/07/14 08:33:25;;;;;;;10.65;5.40;;;24.30;99.90;;;;;;7371304;19;20065;-63
2023/07/14 08:35:52;;;;;;;8.20;5.07;;;24.40;99.90;;;;;;7361380;19;20353;-63
2023/07/14 08:38:19;;;;;;;4.90;3.45;;;24.30;99.90;;;;;;7366559;19;20026;-63
2023/07/14 08:41:36;;;;;;;7.20;4.50;;;24.40;99.90;;;;;;7358254;19;20046;-63
2023/07/14 08:44:36;;;;;;;8.88;4.75;;;24.50;99.90;;;;;;7365530;19;20123;-63
2023/07/14 08:47:02;;;;;;;10.23;9.07;;;24.10;99.90;;;;;;7371897;19;20021;-63
2023/07/14 08:49:41;;;;;;;23.27;20.60;;;23.90;99.90;;;;;;7379708;19;20018;-62
2023/07/14 08:52:21;;;;;;;82.97;75.10;;;23.80;99.90;;;;;;7379743;19;20082;-62
2023/07/14 08:55:03;;;;;;;18.58;15.70;;;23.60;99.90;;;;;;7376512;19;20446;-62
2023/07/14 08:57:51;;;;;;;6.75;4.68;;;23.80;99.90;;;;;;7375464;19;20022;-61
2023/07/14 09:00:54;;;;;;;8.07;6.43;;;23.70;99.90;;;;;;7373807;19;20477;-60
2023/07/14 09:03:42;;;;;;;6.30;3.25;;;23.80;99.40;;;;;;7370543;19;20023;-58
2023/07/14 09:06:28;;;;;;;7.13;3.95;;;24.30;99.30;;;;;;7373521;19;20106;-61
2023/07/14 09:08:54;;;;;;;8.93;7.60;;;24.90;99.30;;;;;;7374371;19;20022;-61
2023/07/14 09:11:58;;;;;;;6.35;3.20;;;25.00;98.60;;;;;;7372888;19;20048;-61
2023/07/14 09:14:31;;;;;;;7.85;5.90;;;25.60;99.70;;;;;;7370698;19;20357;-61
2023/07/14 09:17:06;;;;;;;6.45;3.45;;;25.90;98.00;;;;;;7378981;19;20058;-61
2023/07/14 09:19:39;;;;;;;9.73;8.25;;;26.00;96.20;;;;;;7371746;19;20015;-62
2023/07/14 09:22:29;;;;;;;8.18;4.93;;;25.60;94.20;;;;;;7375414;19;20065;-60
2023/07/14 09:25:37;;;;;;;6.60;4.05;;;25.00;93.20;;;;;;7372278;19;20026;-63
2023/07/14 09:28:13;;;;;;;6.70;4.18;;;24.00;94.80;;;;;;7371336;19;20023;-63
2023/07/14 09:30:40;;;;;;;8.15;4.75;;;24.20;94.80;;;;;;7374647;19;20018;-63
2023/07/14 09:33:13;;;;;;;8.63;5.45;;;23.50;94.90;;;;;;7374621;19;20014;-61
2023/07/14 09:35:40;;;;;;;5.47;3.85;;;23.50;94.60;;;;;;7371476;19;20030;-61
2023/07/14 09:38:22;;;;;;;6.53;3.55;;;23.40;95.60;;;;;;7371499;19;20604;-60
2023/07/14 09:40:55;;;;;;;7.82;3.55;;;23.80;96.60;;;;;;7369719;19;20043;-61
2023/07/14 09:43:21;;;;;;;7.85;4.53;;;23.50;96.60;;;;;;7370507;19;20102;-61
2023/07/14 09:45:53;;;;;;;5.70;3.30;;;23.80;94.70;;;;;;7373621;19;20018;-61
2023/07/14 09:48:26;;;;;;;6.07;3.38;;;24.30;94.50;;;;;;7370471;19;20025;-61
2023/07/14 09:51:05;;;;;;;5.90;3.13;;;24.90;93.70;;;;;;7371908;19;20048;-61
2023/07/14 09:53:35;;;;;;;7.93;3.95;;;25.40;93.30;;;;;;7373025;19;20022;-61
2023/07/14 09:56:13;;;;;;;5.45;3.08;;;25.80;93.70;;;;;;7370855;19;20026;-61
2023/07/14 09:58:52;;;;;;;12.23;10.35;;;26.20;93.40;;;;;;7370708;19;20026;-61
2023/07/14 10:01:18;;;;;;;7.68;5.93;;;26.60;90.80;;;;;;7375166;19;20018;-62
2023/07/14 10:03:51;;;;;;;6.15;3.58;;;26.70;91.90;;;;;;7370763;19;20416;-61
2023/07/14 10:06:26;;;;;;;12.85;9.88;;;26.30;88.00;;;;;;7371642;19;20109;-61
2023/07/14 10:08:59;;;;;;;9.95;6.60;;;26.60;90.50;;;;;;7370089;19;20437;-62
2023/07/14 10:11:30;;;;;;;7.70;4.80;;;26.60;88.30;;;;;;7364269;19;20102;-61
2023/07/14 10:14:05;;;;;;;6.88;3.67;;;26.50;88.70;;;;;;7362006;19;20909;-61
2023/07/14 10:16:32;;;;;;;7.55;4.53;;;25.80;84.30;;;;;;7362613;19;20018;-61
2023/07/14 10:19:05;;;;;;;5.88;3.85;;;25.80;85.20;;;;;;7369662;19;20086;-61
2023/07/14 10:21:34;;;;;;;6.88;3.70;;;26.00;85.10;;;;;;7374831;19;20106;-63
2023/07/14 10:24:05;;;;;;;7.95;6.53;;;25.50;85.40;;;;;;7376075;19;20069;-63
2023/07/14 10:26:38;;;;;;;16.52;14.82;;;24.90;86.80;;;;;;7379390;19;20018;-63
2023/07/14 10:29:16;;;;;;;14.27;12.15;;;24.60;87.10;;;;;;7375141;19;20299;-62
2023/07/14 10:32:01;;;;;;;8.85;6.32;;;24.10;89.10;;;;;;7377629;19;20018;-62
2023/07/14 10:34:39;;;;;;;6.55;3.72;;;24.30;88.70;;;;;;7373149;19;20022;-64
2023/07/14 10:37:24;;;;;;;4.72;3.20;;;24.20;89.20;;;;;;7368645;19;20023;-63
2023/07/14 10:40:04;;;;;;;6.75;4.15;;;24.50;90.90;;;;;;7371786;19;20014;-63
2023/07/14 10:42:36;;;;;;;6.03;3.38;;;24.80;89.90;;;;;;7365464;19;20399;-64
2023/07/14 10:45:04;;;;;;;7.63;3.60;;;25.60;88.10;;;;;;7369344;19;20616;-64
2023/07/14 10:47:42;;;;;;;9.05;3.75;;;26.20;84.00;;;;;;7370072;19;20026;-64
2023/07/14 10:50:29;;;;;;;5.32;2.78;;;26.70;83.80;;;;;;7367398;19;20789;-64
2023/07/14 10:53:21;;;;;;;5.68;3.08;;;25.90;83.20;;;;;;7365868;19;20022;-59
2023/07/14 10:55:50;;;;;;;6.30;3.00;;;25.40;81.50;;;;;;7372694;19;20010;-59
2023/07/14 10:58:37;;;;;;;5.40;3.05;;;25.00;83.60;;;;;;7370298;19;20530;-65
2023/07/14 11:01:16;;;;;;;4.55;2.70;;;24.90;88.30;;;;;;7372897;19;20495;-62
2023/07/14 11:03:52;;;;;;;5.05;3.08;;;24.50;86.70;;;;;;7371910;19;20021;-63
2023/07/14 11:06:30;;;;;;;5.78;2.83;;;24.40;89.00;;;;;;7366011;19;20018;-63
2023/07/14 11:08:57;;;;;;;5.43;2.90;;;24.60;88.20;;;;;;7376701;19;20026;-64
2023/07/14 11:11:46;;;;;;;5.55;2.90;;;25.40;87.50;;;;;;7365719;19;20014;-63
2023/07/14 11:14:30;;;;;;;5.80;2.58;;;25.50;82.10;;;;;;7372872;19;20035;-61
2023/07/14 11:17:30;;;;;;;3.58;2.40;;;25.80;79.40;;;;;;7371558;19;20465;-62
2023/07/14 11:20:15;;;;;;;5.03;2.72;;;25.90;78.60;;;;;;7372220;19;20031;-62
2023/07/14 11:22:57;;;;;;;4.70;2.33;;;26.40;78.30;;;;;;7372244;19;20010;-62
2023/07/14 11:25:26;;;;;;;4.30;2.50;;;25.80;75.20;;;;;;7373394;19;20379;-58
2023/07/14 11:28:01;;;;;;;4.97;2.55;;;25.20;76.40;;;;;;7373745;19;20046;-58
2023/07/14 11:30:35;;;;;;;5.28;2.78;;;24.80;79.20;;;;;;7370303;19;20027;-58
2023/07/14 11:33:14;;;;;;;5.15;2.97;;;24.30;83.90;;;;;;7371819;19;20392;-59
2023/07/14 11:36:01;;;;;;;6.55;2.58;;;24.10;84.20;;;;;;7372738;19;20014;-58
2023/07/14 11:39:03;;;;;;;4.30;2.90;;;24.50;83.20;;;;;;7368640;19;20021;-64
2023/07/14 11:41:32;;;;;;;6.60;2.83;;;25.30;80.60;;;;;;7370828;19;20031;-63
2023/07/14 11:44:01;;;;;;;3.67;1.90;;;26.20;84.50;;;;;;7370898;19;20024;-63
2023/07/14 11:46:28;;;;;;;5.28;2.63;;;26.30;81.50;;;;;;7370471;19;20455;-63
2023/07/14 11:48:54;;;;;;;6.13;2.88;;;26.30;79.60;;;;;;7372902;19;20456;-63
2023/07/14 11:51:41;;;;;;;6.03;2.58;;;26.20;80.20;;;;;;7368325;19;20617;-64
2023/07/14 11:54:21;;;;;;;5.50;2.80;;;25.70;80.90;;;;;;7372684;19;20026;-63
2023/07/14 11:56:58;;;;;;;;;;;25.30;81.70;;;;;;7369552;19;20302;-63
2023/07/14 11:59:28;;;;;;;5.20;2.92;;;25.10;82.60;;;;;;7369054;19;20031;-63
2023/07/14 12:01:59;;;;;;;7.30;3.15;;;25.20;82.60;;;;;;7371858;19;20061;-63
2023/07/14 12:04:31;;;;;;;4.75;3.00;;;25.10;82.80;;;;;;7371480;19;20066;-63
2023/07/14 12:07:19;;;;;;;5.07;2.88;;;24.50;85.10;;;;;;7373103;19;20480;-64
2023/07/14 12:10:10;;;;;;;6.43;3.38;;;24.40;86.20;;;;;;7370536;19;20551;-63
2023/07/14 12:12:39;;;;;;;5.60;2.75;;;24.10;87.70;;;;;;7372520;19;20014;-63
2023/07/14 12:15:44;;;;;;;5.57;2.33;;;23.80;85.80;;;;;;7374680;19;20018;-63
2023/07/14 12:18:26;;;;;;;5.60;3.03;;;23.80;86.00;;;;;;7368032;19;20556;-63
2023/07/14 12:21:18;;;;;;;5.80;2.75;;;24.10;87.00;;;;;;7371185;19;20070;-63
2023/07/14 12:23:51;;;;;;;4.18;2.53;;;24.40;89.00;;;;;;7382868;19;20010;-64
2023/07/14 12:26:34;;;;;;;7.35;3.33;;;24.80;88.60;;;;;;7378015;19;20018;-64
2023/07/14 12:29:02;;;;;;;6.13;2.85;;;24.80;86.80;;;;;;7374621;19;20352;-64
2023/07/14 12:31:34;;;;;;;6.43;3.15;;;25.10;87.60;;;;;;7380110;19;20418;-64
2023/07/14 12:34:01;;;;;;;4.88;3.03;;;26.00;88.80;;;;;;7375093;19;20029;-64
2023/07/14 12:36:31;;;;;;;6.18;3.10;;;26.20;84.40;;;;;;7374516;19;20286;-58
2023/07/14 12:38:59;;;;;;;5.20;3.10;;;26.40;82.20;;;;;;7377893;19;20024;-58
2023/07/14 12:41:32;;;;;;;4.28;2.50;;;26.30;82.50;;;;;;7379661;19;20070;-58
2023/07/14 12:44:01;;;;;;;5.75;2.63;;;26.20;80.90;;;;;;7380142;19;20019;-58
2023/07/14 12:46:36;;;;;;;7.93;3.25;;;26.50;83.70;;;;;;7372351;19;20554;-59
2023/07/14 12:49:30;;;;;;;8.25;3.22;;;26.20;85.10;;;;;;7381069;19;20576;-59
2023/07/14 12:51:58;;;;;;;6.80;3.72;;;26.10;86.20;;;;;;7375602;19;20502;-58
2023/07/14 12:54:27;;;;;;;5.97;3.28;;;25.50;83.00;;;;;;7377992;19;20763;-64
2023/07/14 12:56:56;;;;;;;6.30;3.45;;;25.40;82.90;;;;;;7378378;19;20014;-63
2023/07/14 12:59:23;;;;;;;5.68;3.33;;;25.30;83.90;;;;;;7377807;19;20099;-63